Time;durP1;ratioP1;P1;durP2;ratioP2;P2;SDS_P1;SDS_P2;PMS_P1;PMS_P2;Temp;Humidity;BMP_temperature;BMP_pressure;BME280_temperature;BME280_humidity;BME280_pressure;Samples;Min_cycle;Max_cycle;Signal;HPM_P1;HPM_P2
2022/09/09 00:01:06;;;;;;;3.97;1.17;;;22.60;70.40;;;;;;5092405;28;20047;-67
2022/09/09 00:03:55;;;;;;;2.08;1.35;;;22.60;70.40;;;;;;5092014;28;20407;-66
2022/09/09 00:06:27;;;;;;;2.75;1.55;;;22.60;70.40;;;;;;5090551;28;20052;-67
2022/09/09 00:09:13;;;;;;;3.58;1.50;;;22.60;70.40;;;;;;5108229;28;20523;-67
2022/09/09 00:12:15;;;;;;;2.72;1.55;;;22.50;70.30;;;;;;5090244;28;20041;-67
2022/09/09 00:14:49;;;;;;;2.38;1.40;;;22.50;70.20;;;;;;5092332;28;20040;-67
2022/09/09 00:17:40;;;;;;;3.58;1.50;;;22.50;70.30;;;;;;5091562;28;20093;-67
2022/09/09 00:20:25;;;;;;;4.03;1.45;;;22.50;70.30;;;;;;5091072;28;20044;-68
2022/09/09 00:23:12;;;;;;;2.47;1.00;;;22.50;70.30;;;;;;5091973;28;20507;-67
2022/09/09 00:25:43;;;;;;;1.75;0.98;;;22.50;70.20;;;;;;5091091;28;20047;-67
2022/09/09 00:28:23;;;;;;;1.80;1.30;;;22.50;70.30;;;;;;5107884;28;20048;-67
2022/09/09 00:30:49;;;;;;;2.30;1.35;;;22.50;70.20;;;;;;5090412;28;20086;-67
2022/09/09 00:33:18;;;;;;;2.35;1.15;;;22.50;70.30;;;;;;5090758;28;20120;-67
2022/09/09 00:36:05;;;;;;;3.10;1.38;;;22.50;70.20;;;;;;5090123;28;20046;-67
2022/09/09 00:38:32;;;;;;;;;;;22.50;70.20;;;;;;5091033;28;20097;-67
2022/09/09 00:41:04;;;;;;;2.08;1.13;;;22.40;70.10;;;;;;5124467;27;20453;-67
2022/09/09 00:43:36;;;;;;;3.10;1.30;;;22.50;70.30;;;;;;5094704;28;20410;-67
2022/09/09 00:46:14;;;;;;;3.38;1.55;;;22.50;70.20;;;;;;5111390;27;20040;-67
2022/09/09 00:48:40;;;;;;;1.95;1.10;;;22.50;70.20;;;;;;5094840;28;20131;-67
2022/09/09 00:51:15;;;;;;;2.58;1.35;;;22.50;70.20;;;;;;5095360;28;20109;-67
2022/09/09 00:54:05;;;;;;;2.42;1.27;;;22.40;70.20;;;;;;5094840;28;20479;-68
2022/09/09 00:56:41;;;;;;;2.15;1.48;;;22.40;70.10;;;;;;5095587;28;20044;-67
2022/09/09 00:59:10;;;;;;;2.22;1.20;;;22.40;70.20;;;;;;5094193;28;20052;-68
2022/09/09 01:01:36;;;;;;;3.17;1.60;;;22.40;70.10;;;;;;5094824;28;20208;-67
2022/09/09 01:04:01;;;;;;;3.20;1.10;;;22.40;70.10;;;;;;5094254;28;20106;-67
2022/09/09 01:06:36;;;;;;;2.30;1.10;;;22.40;70.10;;;;;;5093723;28;20218;-67
2022/09/09 01:09:13;;;;;;;2.75;1.17;;;22.40;70.10;;;;;;5094627;28;20055;-67
2022/09/09 01:12:03;;;;;;;2.50;1.50;;;22.40;70.00;;;;;;5093997;28;20083;-67
2022/09/09 01:14:34;;;;;;;2.15;1.00;;;22.40;70.70;;;;;;5093986;28;20050;-67
2022/09/09 01:17:16;;;;;;;3.20;1.50;;;22.40;70.00;;;;;;5093806;28;20537;-67
2022/09/09 01:19:44;;;;;;;2.72;1.17;;;22.40;70.00;;;;;;5112567;27;20044;-67
2022/09/09 01:22:34;;;;;;;1.92;1.15;;;22.40;70.00;;;;;;5093929;28;20048;-67
2022/09/09 01:25:19;;;;;;;2.03;1.10;;;22.40;70.00;;;;;;5122371;27;20078;-67
2022/09/09 01:27:48;;;;;;;1.55;0.98;;;22.40;70.00;;;;;;5111592;27;20519;-67
2022/09/09 01:30:15;;;;;;;1.73;1.02;;;22.40;70.00;;;;;;5092771;28;20089;-68
2022/09/09 01:32:45;;;;;;;2.50;1.30;;;22.30;70.00;;;;;;5110480;28;20090;-67
2022/09/09 01:35:32;;;;;;;2.30;1.45;;;22.40;70.00;;;;;;5094353;28;20472;-69
2022/09/09 01:37:57;;;;;;;1.97;1.10;;;22.40;69.90;;;;;;5083293;28;20063;-68
2022/09/09 01:40:25;;;;;;;2.72;1.30;;;22.40;70.00;;;;;;5094492;28;20302;-68
2022/09/09 01:42:53;;;;;;;2.50;1.10;;;22.40;70.00;;;;;;5110112;27;20048;-67
2022/09/09 01:45:19;;;;;;;3.38;1.10;;;22.30;69.90;;;;;;5092921;28;20439;-67
2022/09/09 01:47:45;;;;;;;2.15;1.20;;;22.40;69.90;;;;;;5093073;28;20123;-68
2022/09/09 01:50:11;;;;;;;1.65;1.10;;;22.30;69.90;;;;;;5092272;28;20101;-67
2022/09/09 01:52:37;;;;;;;1.50;0.90;;;22.30;69.90;;;;;;5093336;28;20121;-68
2022/09/09 01:55:03;;;;;;;1.48;1.02;;;22.30;69.90;;;;;;5094569;28;20422;-67
2022/09/09 01:57:33;;;;;;;2.03;1.00;;;22.30;69.80;;;;;;5091884;28;20044;-66
2022/09/09 02:00:10;;;;;;;3.22;1.30;;;22.30;69.80;;;;;;5093135;28;20085;-67
2022/09/09 02:02:45;;;;;;;2.20;1.20;;;22.30;69.80;;;;;;5093531;28;20062;-66
2022/09/09 02:05:37;;;;;;;2.08;0.90;;;22.30;69.80;;;;;;5092724;28;20050;-67
2022/09/09 02:08:18;;;;;;;1.73;1.10;;;22.30;69.80;;;;;;5093820;28;20411;-68
2022/09/09 02:11:01;;;;;;;2.25;1.17;;;22.30;69.90;;;;;;5092327;28;20040;-68
2022/09/09 02:13:27;;;;;;;2.60;1.38;;;22.30;69.80;;;;;;5093919;28;20055;-68
2022/09/09 02:15:57;;;;;;;2.72;1.33;;;22.30;69.80;;;;;;5092662;28;20048;-67
2022/09/09 02:18:28;;;;;;;1.48;0.98;;;22.30;69.80;;;;;;5074648;28;20042;-67
2022/09/09 02:20:54;;;;;;;2.90;0.90;;;22.30;69.80;;;;;;5094058;28;20122;-67
2022/09/09 02:23:22;;;;;;;2.17;1.10;;;22.30;69.80;;;;;;5108975;28;20127;-66
2022/09/09 02:25:48;;;;;;;;;;;22.30;69.80;;;;;;5092469;28;20040;-67
2022/09/09 02:28:13;;;;;;;1.77;1.10;;;22.20;69.60;;;;;;5092114;28;20417;-66
2022/09/09 02:30:39;;;;;;;1.92;0.90;;;22.20;69.70;;;;;;5108994;28;20471;-67
2022/09/09 02:33:06;;;;;;;3.85;1.25;;;22.30;69.80;;;;;;5091698;28;20081;-67
2022/09/09 02:35:31;;;;;;;1.63;0.90;;;22.30;69.80;;;;;;5092254;28;20097;-67
2022/09/09 02:37:59;;;;;;;2.22;1.10;;;22.30;69.80;;;;;;5075323;28;20048;-67
2022/09/09 02:40:27;;;;;;;2.03;1.10;;;22.30;69.80;;;;;;5091460;28;20047;-67
2022/09/09 02:42:54;;;;;;;2.22;0.73;;;22.30;69.80;;;;;;5093515;28;20039;-66
2022/09/09 02:45:22;;;;;;;1.65;1.00;;;22.30;69.70;;;;;;5091802;28;20101;-66
2022/09/09 02:47:50;;;;;;;;;;;22.30;69.70;;;;;;5109158;27;20040;-67
2022/09/09 02:50:17;;;;;;;;;;;22.20;69.60;;;;;;5092227;28;19920;-67
2022/09/09 02:53:11;;;;;;;3.13;1.02;;;22.20;69.70;;;;;;5091526;28;19920;-67
2022/09/09 02:55:46;;;;;;;1.38;0.80;;;22.20;69.80;;;;;;5089101;28;20059;-67
2022/09/09 02:58:16;;;;;;;1.92;0.93;;;22.20;69.70;;;;;;5092935;28;20043;-67
2022/09/09 03:00:42;;;;;;;2.47;0.90;;;22.20;69.70;;;;;;5107951;28;20086;-67
2022/09/09 03:03:08;;;;;;;2.15;1.10;;;22.20;69.70;;;;;;5091295;28;20068;-67
2022/09/09 03:05:35;;;;;;;1.90;1.00;;;22.20;69.70;;;;;;5092766;28;20426;-66
2022/09/09 03:08:03;;;;;;;1.50;0.98;;;22.20;69.60;;;;;;5092496;28;20052;-67
2022/09/09 03:10:29;;;;;;;1.30;0.95;;;22.20;69.60;;;;;;5091531;28;20060;-66
2022/09/09 03:12:55;;;;;;;2.88;1.17;;;22.20;69.60;;;;;;5092849;28;20052;-67
2022/09/09 03:15:21;;;;;;;1.73;1.00;;;22.20;69.60;;;;;;5091613;28;20089;-67
2022/09/09 03:17:47;;;;;;;1.55;0.85;;;22.20;69.60;;;;;;5091618;28;20084;-67
2022/09/09 03:20:12;;;;;;;1.63;0.90;;;22.20;69.60;;;;;;5092113;28;20044;-66
2022/09/09 03:22:38;;;;;;;1.40;0.80;;;22.20;69.60;;;;;;5091814;28;20055;-66
2022/09/09 03:25:03;;;;;;;1.63;0.85;;;22.10;69.60;;;;;;5092816;28;20047;-67
2022/09/09 03:27:29;;;;;;;2.63;0.90;;;22.20;69.60;;;;;;5092413;28;20039;-67
2022/09/09 03:29:55;;;;;;;2.53;0.93;;;22.10;69.50;;;;;;5091640;28;20477;-67
2022/09/09 03:32:22;;;;;;;1.92;0.80;;;22.20;69.60;;;;;;5090770;28;20173;-67
2022/09/09 03:34:49;;;;;;;1.30;0.80;;;22.20;69.50;;;;;;5092020;28;20056;-67
2022/09/09 03:37:18;;;;;;;1.77;0.80;;;22.10;69.50;;;;;;5091986;28;20113;-67
2022/09/09 03:39:44;;;;;;;1.17;0.80;;;22.10;70.10;;;;;;5092634;28;20058;-67
2022/09/09 03:42:10;;;;;;;3.10;0.98;;;22.20;69.50;;;;;;5091249;28;20039;-67
2022/09/09 03:44:38;;;;;;;2.03;1.00;;;22.20;69.50;;;;;;5090782;28;20135;-67
2022/09/09 03:47:04;;;;;;;2.58;1.00;;;22.10;70.00;;;;;;5091471;28;20480;-67
2022/09/09 03:49:30;;;;;;;1.13;0.90;;;22.10;69.40;;;;;;5091611;28;20044;-67
2022/09/09 03:51:57;;;;;;;1.98;0.80;;;22.10;69.50;;;;;;5092136;28;20059;-67
2022/09/09 03:54:23;;;;;;;1.20;0.70;;;22.10;69.50;;;;;;5092014;28;20036;-67
2022/09/09 03:56:49;;;;;;;1.88;0.90;;;22.10;69.50;;;;;;5091673;28;20040;-66
2022/09/09 03:59:14;;;;;;;1.98;0.88;;;22.10;69.40;;;;;;5091806;28;20044;-66
2022/09/09 04:01:40;;;;;;;1.15;0.82;;;22.10;69.40;;;;;;5092095;28;20071;-67
2022/09/09 04:04:05;;;;;;;1.45;0.88;;;22.10;69.40;;;;;;5090667;28;20127;-67
2022/09/09 04:06:31;;;;;;;1.60;0.82;;;22.10;69.40;;;;;;5091517;28;20051;-67
2022/09/09 04:08:56;;;;;;;2.30;0.80;;;22.10;69.40;;;;;;5091925;28;20043;-67
2022/09/09 04:11:22;;;;;;;1.30;0.90;;;22.10;69.40;;;;;;5090954;28;20047;-67
2022/09/09 04:13:48;;;;;;;2.08;0.73;;;22.10;69.40;;;;;;5091752;28;20044;-67
2022/09/09 04:16:14;;;;;;;2.40;0.75;;;22.10;70.00;;;;;;5091366;28;20560;-67
2022/09/09 04:18:40;;;;;;;1.23;0.63;;;22.10;69.40;;;;;;5128484;27;20048;-67
2022/09/09 04:21:06;;;;;;;1.60;0.90;;;22.10;69.40;;;;;;5096059;28;20088;-67
2022/09/09 04:23:35;;;;;;;1.50;0.77;;;22.10;69.40;;;;;;5096355;28;20055;-67
2022/09/09 04:26:04;;;;;;;1.45;0.75;;;22.10;69.40;;;;;;5095593;28;20048;-67
2022/09/09 04:28:31;;;;;;;1.70;0.80;;;22.10;69.40;;;;;;5095643;28;20044;-67
2022/09/09 04:30:58;;;;;;;2.17;0.90;;;22.10;69.40;;;;;;5096334;28;20039;-67
2022/09/09 04:33:27;;;;;;;1.70;0.73;;;22.10;69.40;;;;;;5093578;28;20044;-66
2022/09/09 04:35:53;;;;;;;1.58;0.82;;;22.10;69.40;;;;;;5095697;28;20055;-66
2022/09/09 04:38:19;;;;;;;1.27;0.70;;;22.10;69.40;;;;;;5094877;28;20048;-67
2022/09/09 04:40:53;;;;;;;1.08;0.70;;;22.10;69.40;;;;;;5095626;28;20039;-67
2022/09/09 04:43:19;;;;;;;1.25;0.80;;;22.10;69.40;;;;;;5095538;28;20122;-67
2022/09/09 04:45:47;;;;;;;2.47;0.60;;;22.10;69.40;;;;;;5095297;28;20145;-67
2022/09/09 04:48:12;;;;;;;1.38;0.77;;;22.10;69.40;;;;;;5095405;28;20056;-67
2022/09/09 04:50:38;;;;;;;1.95;0.95;;;22.10;69.40;;;;;;5095936;28;20048;-68
2022/09/09 04:53:04;;;;;;;1.67;0.63;;;22.00;69.30;;;;;;5094876;28;20049;-67
2022/09/09 04:55:31;;;;;;;2.00;0.82;;;22.10;69.40;;;;;;5094060;28;20415;-68
2022/09/09 04:57:57;;;;;;;1.30;0.80;;;22.00;69.30;;;;;;5095398;28;20059;-68
2022/09/09 05:00:23;;;;;;;1.48;0.80;;;22.00;69.40;;;;;;5094419;28;20045;-68
2022/09/09 05:02:49;;;;;;;1.00;0.70;;;22.00;69.30;;;;;;5095567;28;20541;-68
2022/09/09 05:05:14;;;;;;;2.30;0.68;;;22.10;69.30;;;;;;5094920;28;20048;-68
2022/09/09 05:07:41;;;;;;;1.10;0.70;;;22.00;69.30;;;;;;5094872;28;20491;-67
2022/09/09 05:10:10;;;;;;;2.35;0.70;;;22.00;69.30;;;;;;5095208;28;20051;-68
2022/09/09 05:12:35;;;;;;;1.00;0.80;;;22.00;69.40;;;;;;5095516;28;20063;-67
2022/09/09 05:15:01;;;;;;;1.85;0.80;;;22.00;69.30;;;;;;5094399;28;20036;-67
2022/09/09 05:17:29;;;;;;;1.10;0.60;;;22.00;69.30;;;;;;5094806;28;20496;-67
2022/09/09 05:19:55;;;;;;;1.65;0.63;;;22.00;69.20;;;;;;5094976;28;20514;-67
2022/09/09 05:22:21;;;;;;;1.88;0.70;;;22.00;69.20;;;;;;5092846;28;20547;-67
2022/09/09 05:24:47;;;;;;;1.88;0.60;;;22.00;69.20;;;;;;5093899;28;20044;-67
2022/09/09 05:27:12;;;;;;;1.38;0.60;;;22.00;69.20;;;;;;5094722;28;20075;-67
2022/09/09 05:29:38;;;;;;;1.95;0.80;;;22.00;69.20;;;;;;5094270;28;20075;-67
2022/09/09 05:32:08;;;;;;;2.13;0.82;;;22.00;69.20;;;;;;5094692;28;20097;-68
2022/09/09 05:34:33;;;;;;;1.35;0.60;;;22.00;69.20;;;;;;5094289;28;20126;-68
2022/09/09 05:36:59;;;;;;;1.30;0.77;;;22.00;69.20;;;;;;5094737;28;20147;-68
2022/09/09 05:39:24;;;;;;;1.38;0.70;;;22.00;69.20;;;;;;5094482;28;20044;-68
2022/09/09 05:41:51;;;;;;;1.25;0.65;;;21.90;69.10;;;;;;5094018;28;20109;-68
2022/09/09 05:44:16;;;;;;;1.52;0.60;;;22.00;69.20;;;;;;5094194;28;20040;-68
2022/09/09 05:46:42;;;;;;;1.98;0.70;;;22.00;69.20;;;;;;5094716;28;20036;-67
2022/09/09 05:49:08;;;;;;;1.35;0.63;;;22.00;69.20;;;;;;5093662;28;20040;-68
2022/09/09 05:51:34;;;;;;;1.20;0.80;;;21.90;69.10;;;;;;5094445;28;20040;-68
2022/09/09 05:53:59;;;;;;;1.42;0.68;;;21.90;69.10;;;;;;5094478;28;20055;-68
2022/09/09 05:56:27;;;;;;;1.13;0.77;;;21.90;69.10;;;;;;5093078;28;20040;-66
2022/09/09 05:58:56;;;;;;;1.13;0.57;;;22.00;69.20;;;;;;5092986;28;20044;-67
2022/09/09 06:01:29;;;;;;;2.03;0.80;;;22.00;69.20;;;;;;5093994;28;20044;-67
2022/09/09 06:03:55;;;;;;;1.52;0.82;;;22.00;69.20;;;;;;5093362;28;20059;-67
2022/09/09 06:06:25;;;;;;;1.05;0.90;;;22.00;69.20;;;;;;5093509;28;20056;-66
2022/09/09 06:08:53;;;;;;;0.90;0.70;;;22.00;69.20;;;;;;5094282;28;20040;-67
2022/09/09 06:11:22;;;;;;;1.52;0.70;;;22.00;69.20;;;;;;5093063;28;20040;-67
2022/09/09 06:13:51;;;;;;;1.92;0.63;;;22.00;69.30;;;;;;5093646;28;20580;-73
2022/09/09 06:16:22;;;;;;;2.80;0.80;;;22.00;69.30;;;;;;5094165;28;20040;-67
2022/09/09 06:18:48;;;;;;;1.40;0.70;;;22.00;69.90;;;;;;5093618;28;20048;-68
2022/09/09 06:21:18;;;;;;;2.90;0.80;;;22.00;69.30;;;;;;5093734;28;20044;-68
2022/09/09 06:23:44;;;;;;;2.60;0.80;;;22.00;69.40;;;;;;5093039;28;20449;-67
2022/09/09 06:26:20;;;;;;;4.43;1.13;;;22.00;69.60;;;;;;5092282;28;20073;-67
2022/09/09 06:28:47;;;;;;;3.65;0.90;;;22.00;69.80;;;;;;5093617;28;20479;-67
2022/09/09 06:31:23;;;;;;;4.07;0.90;;;22.00;69.80;;;;;;5092480;28;20043;-67
2022/09/09 06:33:58;;;;;;;3.30;1.00;;;22.00;69.90;;;;;;5093657;28;20090;-68
2022/09/09 06:36:28;;;;;;;4.18;0.80;;;22.00;69.90;;;;;;5093178;28;20087;-66
2022/09/09 06:38:54;;;;;;;2.78;0.80;;;22.00;70.00;;;;;;5092498;28;20087;-66
2022/09/09 06:41:20;;;;;;;3.03;0.73;;;22.00;70.00;;;;;;5092409;28;20074;-66
2022/09/09 06:43:46;;;;;;;3.13;0.70;;;22.10;70.10;;;;;;5092218;28;20479;-66
2022/09/09 06:46:29;;;;;;;3.00;0.70;;;22.10;70.10;;;;;;5092374;28;20044;-66
2022/09/09 06:48:56;;;;;;;1.63;0.70;;;22.10;70.10;;;;;;5093585;28;20119;-66
2022/09/09 06:51:23;;;;;;;3.60;0.80;;;22.10;70.20;;;;;;5091956;28;20626;-66
2022/09/09 06:53:56;;;;;;;2.33;0.63;;;22.10;70.20;;;;;;5092250;28;20052;-66
2022/09/09 06:56:28;;;;;;;3.20;0.82;;;22.10;70.20;;;;;;5092625;28;20044;-65
2022/09/09 06:58:58;;;;;;;1.92;0.77;;;22.10;70.40;;;;;;5090899;28;20385;-66
2022/09/09 07:01:28;;;;;;;4.43;0.90;;;22.10;70.30;;;;;;5092920;28;20054;-65
2022/09/09 07:03:55;;;;;;;2.78;0.80;;;22.10;70.30;;;;;;5093155;28;20040;-65
2022/09/09 07:06:25;;;;;;;1.67;0.73;;;22.10;70.20;;;;;;5092008;28;20048;-64
2022/09/09 07:08:54;;;;;;;4.35;1.10;;;22.10;70.20;;;;;;5092813;28;20044;-64
2022/09/09 07:11:21;;;;;;;3.70;0.73;;;22.10;70.30;;;;;;5092811;28;20048;-65
2022/09/09 07:13:49;;;;;;;2.65;0.60;;;22.10;70.30;;;;;;5092127;28;20044;-66
2022/09/09 07:16:17;;;;;;;1.63;0.60;;;22.10;70.20;;;;;;5091079;28;20067;-65
2022/09/09 07:18:43;;;;;;;3.88;0.60;;;22.10;70.20;;;;;;5090527;28;20093;-65
2022/09/09 07:21:09;;;;;;;2.60;1.02;;;22.10;70.30;;;;;;5090743;28;20056;-64
2022/09/09 07:23:35;;;;;;;3.03;0.70;;;22.10;70.20;;;;;;5091294;28;20709;-65
2022/09/09 07:26:01;;;;;;;2.25;0.60;;;22.10;70.30;;;;;;5092342;28;20080;-66
2022/09/09 07:28:30;;;;;;;1.42;0.77;;;22.20;70.40;;;;;;5091411;28;20460;-66
2022/09/09 07:31:03;;;;;;;3.88;0.80;;;22.10;70.40;;;;;;5092842;28;20063;-66
2022/09/09 07:33:31;;;;;;;3.70;0.88;;;22.20;70.40;;;;;;5092504;28;20044;-66
2022/09/09 07:36:24;;;;;;;3.47;0.70;;;22.20;70.40;;;;;;5089876;28;20048;-66
2022/09/09 07:38:52;;;;;;;2.40;0.80;;;22.20;70.60;;;;;;5069793;28;20101;-66
2022/09/09 07:41:30;;;;;;;1.90;0.88;;;22.20;70.40;;;;;;5069861;28;20472;-66
2022/09/09 07:43:55;;;;;;;2.05;0.68;;;22.20;70.40;;;;;;5072153;28;20067;-66
2022/09/09 07:46:25;;;;;;;6.18;0.90;;;22.20;70.40;;;;;;5071861;28;20483;-66
2022/09/09 07:49:00;;;;;;;5.20;0.90;;;22.20;70.40;;;;;;5071293;28;20429;-65
2022/09/09 07:51:31;;;;;;;2.42;0.85;;;22.20;70.30;;;;;;5071188;28;20545;-66
2022/09/09 07:53:58;;;;;;;2.72;0.95;;;22.30;70.30;;;;;;5072035;28;20154;-67
2022/09/09 07:56:24;;;;;;;1.58;0.77;;;22.20;70.80;;;;;;5071264;28;20044;-66
2022/09/09 07:58:51;;;;;;;2.65;0.88;;;22.20;70.10;;;;;;5070455;28;20067;-66
2022/09/09 08:01:21;;;;;;;2.45;0.90;;;22.30;70.10;;;;;;5071903;28;20040;-67
2022/09/09 08:03:51;;;;;;;1.48;0.70;;;22.30;70.10;;;;;;5070012;28;20055;-67
2022/09/09 08:06:17;;;;;;;3.10;0.68;;;22.30;70.10;;;;;;5070100;28;20036;-66
2022/09/09 08:08:43;;;;;;;3.33;0.80;;;22.30;70.20;;;;;;5072247;28;20067;-66
2022/09/09 08:11:12;;;;;;;3.30;0.75;;;22.40;70.30;;;;;;5070894;28;20040;-67
2022/09/09 08:13:38;;;;;;;3.50;0.80;;;22.40;70.40;;;;;;5072005;28;20048;-67
2022/09/09 08:16:11;;;;;;;3.50;0.70;;;22.40;70.40;;;;;;5071506;28;20377;-69
2022/09/09 08:18:40;;;;;;;2.33;0.77;;;22.50;70.50;;;;;;5072155;28;20055;-70
2022/09/09 08:21:17;;;;;;;4.30;0.80;;;22.50;70.40;;;;;;5071775;28;20045;-68
2022/09/09 08:23:46;;;;;;;2.65;0.70;;;22.50;70.50;;;;;;5069869;28;20052;-68
2022/09/09 08:26:16;;;;;;;1.95;0.70;;;22.50;70.40;;;;;;5071301;28;20387;-69
2022/09/09 08:28:42;;;;;;;5.15;0.85;;;22.50;70.40;;;;;;5071794;28;20071;-69
2022/09/09 08:31:10;;;;;;;1.38;0.60;;;22.50;70.50;;;;;;5070911;28;20464;-71
2022/09/09 08:33:38;;;;;;;2.28;0.60;;;22.50;70.40;;;;;;5071689;28;20067;-68
2022/09/09 08:36:06;;;;;;;1.52;0.50;;;22.50;70.40;;;;;;5071318;28;20153;-69
2022/09/09 08:38:33;;;;;;;2.65;0.85;;;22.60;70.50;;;;;;5083945;28;20048;-70
2022/09/09 08:41:14;;;;;;;3.08;0.55;;;22.60;70.40;;;;;;5092031;28;20044;-68
2022/09/09 08:43:42;;;;;;;3.15;0.60;;;22.60;70.40;;;;;;5091892;28;20098;-70
2022/09/09 08:46:34;;;;;;;2.25;0.60;;;22.60;70.40;;;;;;5089614;28;20047;-70
2022/09/09 08:49:10;;;;;;;2.53;0.75;;;22.60;70.30;;;;;;5090755;28;20145;-70
2022/09/09 08:51:36;;;;;;;3.33;0.70;;;22.50;70.30;;;;;;5106664;28;20951;-69
2022/09/09 08:54:02;;;;;;;2.78;0.60;;;22.60;70.40;;;;;;5073430;28;20122;-70
2022/09/09 08:56:28;;;;;;;3.15;0.70;;;22.50;70.40;;;;;;5090018;28;20035;-70
2022/09/09 08:58:54;;;;;;;2.10;0.65;;;22.50;70.40;;;;;;5106552;28;20089;-70
2022/09/09 09:01:20;;;;;;;3.45;1.13;;;22.60;70.40;;;;;;5107164;28;20088;-70
2022/09/09 09:04:04;;;;;;;1.95;0.70;;;22.50;70.30;;;;;;5094962;28;20075;-70
2022/09/09 09:06:58;;;;;;;1.27;0.50;;;22.60;70.40;;;;;;5094409;28;20047;-70
2022/09/09 09:10:00;;;;;;;2.55;0.70;;;22.50;70.30;;;;;;5094196;28;20044;-70
2022/09/09 09:12:27;;;;;;;2.85;0.80;;;22.50;70.30;;;;;;5092907;28;20520;-67
2022/09/09 09:14:55;;;;;;;2.65;0.70;;;22.50;70.40;;;;;;5094007;28;20066;-67
2022/09/09 09:17:21;;;;;;;1.75;0.52;;;22.50;70.30;;;;;;5093749;28;20053;-68
2022/09/09 09:19:47;;;;;;;2.80;0.80;;;22.50;70.30;;;;;;5094285;28;20464;-66
2022/09/09 09:22:22;;;;;;;2.90;1.00;;;22.50;70.20;;;;;;5094584;28;20127;-68
2022/09/09 09:24:54;;;;;;;3.85;0.90;;;22.50;70.30;;;;;;5095120;28;20036;-66
2022/09/09 09:27:36;;;;;;;2.00;0.70;;;22.50;70.30;;;;;;5093990;28;20036;-67
2022/09/09 09:30:18;;;;;;;4.72;0.90;;;22.50;70.30;;;;;;5094876;28;20055;-66
2022/09/09 09:32:57;;;;;;;4.15;0.90;;;22.50;70.30;;;;;;5095641;28;20377;-66
2022/09/09 09:35:26;;;;;;;2.40;0.75;;;22.50;70.30;;;;;;5093592;28;20048;-67
2022/09/09 09:37:52;;;;;;;4.95;0.90;;;22.60;70.30;;;;;;5094771;28;20139;-67
2022/09/09 09:40:19;;;;;;;4.47;0.93;;;22.50;70.30;;;;;;5110965;28;20116;-67
2022/09/09 09:42:55;;;;;;;1.83;0.93;;;22.60;70.30;;;;;;5093057;28;20460;-67
2022/09/09 09:45:35;;;;;;;2.28;0.70;;;22.60;70.30;;;;;;5111699;27;20054;-67
2022/09/09 09:48:05;;;;;;;0.88;0.60;;;22.60;70.30;;;;;;5077172;28;20048;-67
2022/09/09 09:50:31;;;;;;;3.80;0.82;;;22.60;70.30;;;;;;5095147;28;20048;-68
2022/09/09 09:52:59;;;;;;;1.90;0.70;;;22.60;70.30;;;;;;5093279;28;20044;-69
2022/09/09 09:55:29;;;;;;;2.55;0.80;;;22.60;70.30;;;;;;5090962;28;20499;-71
2022/09/09 09:58:01;;;;;;;2.78;0.85;;;22.60;70.20;;;;;;5092565;28;20089;-71
2022/09/09 10:00:26;;;;;;;3.92;1.00;;;22.70;70.20;;;;;;5094295;28;20059;-70
2022/09/09 10:02:52;;;;;;;3.05;0.65;;;22.70;70.10;;;;;;5075698;28;20044;-67
2022/09/09 10:05:21;;;;;;;3.80;1.02;;;22.70;70.00;;;;;;5093165;28;20036;-68
2022/09/09 10:08:20;;;;;;;3.88;0.70;;;22.70;70.00;;;;;;5093086;28;20048;-67
2022/09/09 10:10:57;;;;;;;3.42;0.90;;;22.70;70.00;;;;;;5081413;28;20052;-67
2022/09/09 10:13:54;;;;;;;5.57;1.15;;;22.70;70.00;;;;;;5092354;28;20051;-65
2022/09/09 10:16:41;;;;;;;3.30;0.88;;;22.70;70.00;;;;;;5093259;28;20048;-66
2022/09/09 10:19:12;;;;;;;5.25;1.10;;;22.70;70.00;;;;;;5093195;28;20040;-68
2022/09/09 10:22:12;;;;;;;3.30;0.80;;;22.70;69.90;;;;;;5093115;28;20043;-67
2022/09/09 10:25:05;;;;;;;1.90;0.63;;;22.70;69.70;;;;;;5092229;28;20055;-68
2022/09/09 10:27:33;;;;;;;2.45;0.90;;;22.70;69.60;;;;;;5091297;28;20063;-67
2022/09/09 10:30:08;;;;;;;3.17;0.88;;;22.70;69.60;;;;;;5093045;28;20430;-67
2022/09/09 10:32:38;;;;;;;3.83;0.80;;;22.70;69.60;;;;;;5092922;28;20051;-68
2022/09/09 10:35:52;;;;;;;2.88;0.85;;;22.70;69.40;;;;;;5094088;28;20514;-67
2022/09/09 10:38:19;;;;;;;2.50;1.00;;;22.70;69.40;;;;;;5078489;28;20135;-67
2022/09/09 10:40:56;;;;;;;4.72;0.70;;;22.70;69.40;;;;;;5073987;28;20045;-68
2022/09/09 10:44:14;;;;;;;2.22;0.70;;;22.70;69.40;;;;;;5073090;28;20045;-69
2022/09/09 10:46:57;;;;;;;1.88;0.77;;;22.80;69.50;;;;;;5031592;28;20072;-68
2022/09/09 10:49:52;;;;;;;4.63;0.88;;;22.80;69.50;;;;;;5068109;28;20052;-68
2022/09/09 10:52:26;;;;;;;2.67;0.80;;;22.80;69.50;;;;;;5071421;28;20468;-68
2022/09/09 10:55:16;;;;;;;2.67;0.88;;;22.80;69.50;;;;;;5073493;28;20040;-68
2022/09/09 10:57:47;;;;;;;6.05;1.00;;;22.80;69.40;;;;;;5072333;28;20057;-68
2022/09/09 11:00:19;;;;;;;4.80;1.30;;;22.80;69.40;;;;;;5072357;28;20170;-68
2022/09/09 11:02:53;;;;;;;4.28;1.88;;;22.80;69.40;;;;;;5072696;28;20044;-66
2022/09/09 11:05:29;;;;;;;11.90;2.40;;;22.80;69.40;;;;;;5054740;28;20041;-65
2022/09/09 11:07:59;;;;;;;11.32;2.40;;;22.80;69.60;;;;;;5071956;28;20461;-66
2022/09/09 11:10:46;;;;;;;11.52;2.10;;;22.80;69.70;;;;;;5071310;28;20037;-65
2022/09/09 11:13:17;;;;;;;12.73;2.40;;;22.80;69.70;;;;;;5070681;28;20075;-65
2022/09/09 11:15:49;;;;;;;8.63;2.47;;;22.80;69.70;;;;;;5071650;28;20045;-65
2022/09/09 11:18:24;;;;;;;12.93;2.55;;;22.80;69.70;;;;;;5071648;28;20174;-66
2022/09/09 11:20:55;;;;;;;11.38;2.70;;;22.80;69.70;;;;;;5072292;28;20044;-66
2022/09/09 11:23:28;;;;;;;14.68;2.08;;;22.80;69.60;;;;;;5071569;28;20473;-66
2022/09/09 11:25:56;;;;;;;13.38;2.70;;;22.80;69.50;;;;;;5071619;28;20056;-66
2022/09/09 11:28:47;;;;;;;13.68;2.22;;;22.80;69.40;;;;;;5070436;28;20389;-66
2022/09/09 11:31:31;;;;;;;8.98;2.30;;;22.80;69.10;;;;;;5072378;28;20041;-66
2022/09/09 11:34:04;;;;;;;10.02;2.13;;;22.80;69.10;;;;;;5070642;28;20435;-66
2022/09/09 11:36:49;;;;;;;7.40;1.92;;;22.80;68.80;;;;;;5075112;28;20436;-66
2022/09/09 11:39:30;;;;;;;10.77;1.90;;;22.80;68.30;;;;;;5091240;28;20381;-67
2022/09/09 11:42:13;;;;;;;13.23;2.08;;;22.80;67.80;;;;;;5092009;28;20044;-67
2022/09/09 11:44:42;;;;;;;8.60;1.75;;;22.80;67.70;;;;;;5092648;28;20561;-66
2022/09/09 11:47:29;;;;;;;7.60;1.80;;;22.80;67.70;;;;;;5090455;28;20047;-67
2022/09/09 11:50:07;;;;;;;8.75;1.77;;;22.80;67.60;;;;;;5092699;28;20048;-67
2022/09/09 11:52:37;;;;;;;8.15;1.80;;;22.80;67.70;;;;;;5076279;28;20043;-65
2022/09/09 11:55:26;;;;;;;10.98;2.40;;;22.80;67.60;;;;;;5091962;28;20471;-65
2022/09/09 11:58:12;;;;;;;8.43;1.50;;;22.80;67.60;;;;;;5091397;28;20059;-66
2022/09/09 12:00:44;;;;;;;6.93;1.67;;;22.80;67.60;;;;;;5081720;28;20102;-65
2022/09/09 12:03:43;;;;;;;8.45;1.98;;;22.80;67.60;;;;;;5090644;28;20506;-66
2022/09/09 12:06:25;;;;;;;7.88;1.67;;;22.80;67.60;;;;;;5084410;28;20052;-65
2022/09/09 12:08:53;;;;;;;9.15;1.80;;;22.80;67.70;;;;;;5075955;28;20053;-66
2022/09/09 12:11:28;;;;;;;7.43;1.60;;;22.80;67.70;;;;;;5092058;28;20032;-66
2022/09/09 12:14:06;;;;;;;6.78;1.23;;;22.80;67.70;;;;;;5092536;28;20059;-65
2022/09/09 12:16:38;;;;;;;10.05;1.70;;;22.80;67.70;;;;;;5075105;28;20093;-65
2022/09/09 12:19:19;;;;;;;5.60;1.58;;;22.80;67.80;;;;;;5092650;28;20048;-65
2022/09/09 12:21:49;;;;;;;5.35;1.30;;;22.80;67.80;;;;;;5058319;28;20059;-65
2022/09/09 12:24:26;;;;;;;8.05;1.55;;;22.80;67.80;;;;;;5073844;28;20376;-65
2022/09/09 12:27:25;;;;;;;8.50;1.30;;;22.90;67.80;;;;;;5075425;28;20089;-65
2022/09/09 12:30:09;;;;;;;7.35;1.33;;;22.90;67.80;;;;;;5090468;28;20094;-65
2022/09/09 12:32:34;;;;;;;7.53;1.50;;;22.90;67.80;;;;;;5091497;28;20044;-65
2022/09/09 12:35:03;;;;;;;5.03;1.23;;;22.90;67.80;;;;;;5091249;28;20044;-65
2022/09/09 12:37:49;;;;;;;6.80;1.20;;;22.80;67.80;;;;;;5090483;28;20048;-64
2022/09/09 12:40:25;;;;;;;4.15;1.45;;;22.90;67.80;;;;;;5094607;28;20052;-65
2022/09/09 12:42:51;;;;;;;7.53;1.40;;;22.80;67.80;;;;;;5096445;28;20046;-65
2022/09/09 12:45:18;;;;;;;5.45;1.10;;;22.80;67.80;;;;;;5095081;28;20123;-65
2022/09/09 12:47:53;;;;;;;4.93;1.13;;;22.80;67.90;;;;;;5096403;28;20094;-65
2022/09/09 12:50:25;;;;;;;4.63;1.20;;;22.80;67.90;;;;;;5095847;28;20169;-66
2022/09/09 12:52:52;;;;;;;6.80;1.48;;;22.80;67.90;;;;;;5095968;28;20040;-66
2022/09/09 12:55:24;;;;;;;5.13;1.23;;;22.80;68.00;;;;;;5095929;28;20036;-66
2022/09/09 12:57:50;;;;;;;10.52;1.55;;;22.80;68.10;;;;;;5094978;28;20047;-66
2022/09/09 13:00:19;;;;;;;10.93;1.70;;;22.80;68.00;;;;;;5077240;28;20037;-66
2022/09/09 13:02:50;;;;;;;12.90;1.85;;;22.80;68.00;;;;;;5095840;28;20055;-66
2022/09/09 13:05:24;;;;;;;8.95;1.23;;;22.90;68.20;;;;;;5093454;28;20044;-65
2022/09/09 13:07:50;;;;;;;9.48;1.60;;;22.90;68.30;;;;;;5092847;28;20044;-67
2022/09/09 13:10:24;;;;;;;10.23;1.70;;;23.00;68.60;;;;;;5094505;28;20038;-66
2022/09/09 13:12:50;;;;;;;8.48;1.70;;;23.00;68.80;;;;;;5093186;28;20063;-67